Hot Springs, Arkansas
Current Conditions -  °F | °C
As of 2:24 AM on Monday 24 Nov 2014 (Local Time) from KHOT Reporting Station
Overcast Overcast  
Wind Chill: 50°   Ceiling: 3200
Heat Index: 50°   Visibility: 10mi
Dew Point: 40°   Wind: 12mph
Humidity: 68%   Direction: 290°WNW
Pressure: 29.66"   Gusts: 23mph
Location:  34.51°N, 93.05°W
Report Text: KHOT 240824Z AUTO 29010G20KT 260V320 10SM OVC032 10/04 A2966 RMK AO2 PK WND 31026/0757 T01000044
Loading
Personal Weather Stations






























Interactive Weather Map New forecast layout! Learn more

10-Day Weather Forecast

Advertisements
Track Severe Weather on mobile